Ben Bolt, Texas
Current Conditions -  °F | °C
As of 10:53 PM on Friday 28 Nov 2014 (Local Time) from KALI Reporting Station
Clear Clear  
Wind Chill: 14°   Ceiling: Unl
Heat Index: 14°   Visibility: 10mi
Dew Point: 12°   Wind: 6mph
Humidity: 89%   Direction: 170°S
Pressure: 30.14"   Gusts: NA
Location:  27.65°N, 98.08°W
Report Text: KALI 290453Z AUTO 17005KT 10SM CLR 14/12 A3014 RMK AO2 SLP205 T01390122
Loading
Personal Weather Stations






























Interactive Weather Map New forecast layout! Learn more

10-Day Weather Forecast

Advertisements
Track Severe Weather on mobile